San Diego, California
Traffic Map
Current Weather Conditions
San Diego, California
Few Clouds
Few Clouds
71°
Feels Like: 71°
Wind Chill: 71° Ceiling: Unl
Heat Index: 71° Visibility: 10mi
Dew Point: 64° Wind: 7mph
Humidity: 78% Direction: 310° (NW)
Pressure: 29.85in Gusts: 0mph
Raw Report DataKSAN 300351Z 31006KT 10SM FEW010 22/18 A2985 RMK AO2 SLP107 T02170178 $
Traffic Incident Summary
Active as of:
Severity:
Category:
InformationThere was an issue retrieving the traffic information for this location. Please try a different location or try again shortly.
Advertisements
Track Severe Weather on mobile